createdAt,value
2023-01-13T00:01:00.478Z,1.33
2023-01-13T00:03:30.117Z,1.48
2023-01-13T00:05:59.846Z,1.60
2023-01-13T00:08:27.807Z,1.33
2023-01-13T00:10:55.261Z,1.50
2023-01-13T00:13:23.242Z,1.58
2023-01-13T00:15:56.376Z,1.52
2023-01-13T00:18:24.442Z,1.10
2023-01-13T00:21:00.021Z,1.60
2023-01-13T00:23:28.757Z,1.50
2023-01-13T00:25:56.735Z,1.60
2023-01-13T00:28:24.636Z,1.33
2023-01-13T00:30:52.404Z,1.30
2023-01-13T00:33:20.674Z,1.35
2023-01-13T00:35:56.070Z,1.25
2023-01-13T00:38:25.479Z,1.38
2023-01-13T00:40:56.864Z,1.35
2023-01-13T00:43:25.463Z,1.88
2023-01-13T00:45:53.261Z,1.50
2023-01-13T00:48:22.471Z,1.70
2023-01-13T00:50:55.786Z,1.58
2023-01-13T00:53:25.755Z,1.23
2023-01-13T00:56:00.030Z,1.60
2023-01-13T00:58:28.191Z,1.20
2023-01-13T01:00:59.524Z,1.60
2023-01-13T01:03:27.677Z,1.40
2023-01-13T01:05:55.295Z,1.70
2023-01-13T01:08:23.467Z,1.50
2023-01-13T01:11:01.069Z,1.60
2023-01-13T01:13:29.122Z,1.63
2023-01-13T01:15:56.907Z,1.60
2023-01-13T01:18:25.076Z,1.65
2023-01-13T01:20:52.584Z,1.58
2023-01-13T01:23:20.429Z,1.40
2023-01-13T01:25:48.116Z,1.50
2023-01-13T01:28:17.730Z,1.88
2023-01-13T01:30:45.318Z,1.80
2023-01-13T01:33:13.184Z,1.63
2023-01-13T01:35:40.863Z,1.90
2023-01-13T01:38:08.827Z,1.40
2023-01-13T01:40:36.247Z,1.40
2023-01-13T01:43:14.346Z,1.70
2023-01-13T01:45:43.307Z,1.50
2023-01-13T01:48:11.764Z,1.70
2023-01-13T01:50:40.269Z,1.40
2023-01-13T01:53:13.334Z,1.33
2023-01-13T01:55:41.517Z,1.65
2023-01-13T01:58:13.887Z,1.50
2023-01-13T02:00:41.577Z,1.90
2023-01-13T02:03:11.472Z,1.70
2023-01-13T02:05:38.978Z,1.48
2023-01-13T02:08:09.056Z,1.65
2023-01-13T02:10:37.517Z,1.75
2023-01-13T02:13:07.541Z,1.55
2023-01-13T02:15:42.459Z,1.58
2023-01-13T02:18:35.455Z,1.63
2023-01-13T02:21:24.739Z,1.80
2023-01-13T02:24:17.419Z,1.70
2023-01-13T02:27:23.119Z,1.88
2023-01-13T02:30:07.460Z,1.80
2023-01-13T02:32:44.860Z,1.50
2023-01-13T02:35:21.559Z,2.20
2023-01-13T02:37:50.793Z,1.75
2023-01-13T02:40:24.090Z,1.75
2023-01-13T02:42:57.859Z,1.98
2023-01-13T02:45:32.447Z,1.38
2023-01-13T02:48:02.119Z,1.58
2023-01-13T02:50:36.368Z,2.03
2023-01-13T02:53:08.619Z,1.60
2023-01-13T02:55:40.340Z,1.65
2023-01-13T02:58:10.513Z,1.52
2023-01-13T03:00:41.725Z,1.60
2023-01-13T03:03:09.288Z,1.30
2023-01-13T03:05:38.321Z,1.67
2023-01-13T03:08:17.082Z,1.80
2023-01-13T03:10:59.681Z,1.38
2023-01-13T03:13:42.734Z,2.00
2023-01-13T03:16:22.995Z,1.50
2023-01-13T03:18:58.431Z,1.67
2023-01-13T03:21:31.042Z,1.40
2023-01-13T03:24:05.009Z,1.25
2023-01-13T03:26:40.247Z,1.80
2023-01-13T03:29:15.070Z,1.55
2023-01-13T03:31:53.692Z,1.45
2023-01-13T03:34:25.443Z,1.40
2023-01-13T03:36:58.193Z,1.58
2023-01-13T03:39:32.438Z,1.73
2023-01-13T03:42:05.678Z,1.60
2023-01-13T03:44:36.073Z,1.70
2023-01-13T03:47:12.693Z,1.60
2023-01-13T03:49:46.079Z,1.40
2023-01-13T03:52:22.609Z,1.17
2023-01-13T03:54:55.034Z,1.35
2023-01-13T03:57:27.707Z,1.60
2023-01-13T03:59:59.657Z,1.30
2023-01-13T04:05:08.855Z,1.23
2023-01-13T04:07:46.568Z,1.42
2023-01-13T04:10:20.168Z,1.00
2023-01-13T04:12:53.611Z,1.33
2023-01-13T04:15:24.263Z,1.42
2023-01-13T04:17:54.612Z,1.38
2023-01-13T04:20:22.352Z,1.25
2023-01-13T04:22:50.260Z,1.20
2023-01-13T04:25:17.989Z,1.45
2023-01-13T04:27:45.895Z,1.98
2023-01-13T04:30:13.746Z,1.30
2023-01-13T04:32:41.665Z,1.27
2023-01-13T04:35:11.323Z,1.13
2023-01-13T04:37:39.372Z,1.10
2023-01-13T04:40:08.422Z,1.40
2023-01-13T04:42:36.250Z,1.10
2023-01-13T04:45:04.011Z,1.08
2023-01-13T04:47:31.988Z,1.40
2023-01-13T04:49:59.493Z,1.50
2023-01-13T04:52:28.833Z,1.40
2023-01-13T04:54:56.214Z,1.30
2023-01-13T04:57:24.257Z,1.20
2023-01-13T04:59:51.727Z,1.13
2023-01-13T05:02:19.651Z,1.60
2023-01-13T05:04:47.891Z,1.20
2023-01-13T05:07:16.751Z,1.10
2023-01-13T05:09:45.651Z,1.17
2023-01-13T05:12:13.743Z,0.95
2023-01-13T05:14:41.263Z,1.17
2023-01-13T05:17:10.942Z,1.10
2023-01-13T05:19:38.315Z,0.98
2023-01-13T05:22:06.415Z,0.95
2023-01-13T05:24:33.970Z,1.00
2023-01-13T05:27:03.404Z,1.10
2023-01-13T05:29:33.743Z,1.15
2023-01-13T05:32:05.252Z,0.90
2023-01-13T05:34:33.497Z,0.85
2023-01-13T05:37:01.280Z,1.13
2023-01-13T05:39:28.976Z,1.00
2023-01-13T05:41:57.152Z,0.90
2023-01-13T05:44:26.104Z,1.10
2023-01-13T05:46:53.975Z,1.00
2023-01-13T05:49:21.537Z,1.20
2023-01-13T05:51:49.656Z,1.17
2023-01-13T05:54:17.168Z,1.20
2023-01-13T05:56:44.991Z,0.98
2023-01-13T05:59:12.671Z,0.95
2023-01-13T06:01:42.069Z,0.85
2023-01-13T06:04:09.647Z,1.20
2023-01-13T06:06:37.644Z,0.98
2023-01-13T06:09:05.146Z,1.15
2023-01-13T06:11:33.223Z,1.00
2023-01-13T06:14:00.794Z,0.90
2023-01-13T06:16:28.806Z,0.77
2023-01-13T06:18:57.884Z,0.77
2023-01-13T06:21:25.922Z,1.05
2023-01-13T06:23:53.668Z,0.93
2023-01-13T06:26:25.107Z,0.65
2023-01-13T06:28:52.625Z,0.60
2023-01-13T06:31:20.617Z,0.82
2023-01-13T06:33:51.396Z,1.08
2023-01-13T06:36:24.664Z,0.95
2023-01-13T06:38:55.049Z,0.90
2023-01-13T06:41:23.872Z,0.90
2023-01-13T06:43:51.554Z,1.00
2023-01-13T06:46:19.523Z,1.10
2023-01-13T06:48:46.937Z,0.85
2023-01-13T06:51:15.069Z,0.57
2023-01-13T06:53:43.951Z,1.02
2023-01-13T06:56:11.797Z,0.80
2023-01-13T06:58:39.226Z,0.70
2023-01-13T07:01:07.273Z,0.82
2023-01-13T07:03:34.777Z,0.90
2023-01-13T07:06:02.652Z,0.70
2023-01-13T07:08:30.097Z,1.13
2023-01-13T07:11:01.819Z,0.70
2023-01-13T07:13:29.624Z,1.30
2023-01-13T07:15:59.134Z,0.90
2023-01-13T07:18:27.910Z,0.90
2023-01-13T07:20:58.031Z,1.10
2023-01-13T07:23:25.822Z,1.20
2023-01-13T07:25:55.482Z,1.10
2023-01-13T07:28:24.822Z,1.00
2023-01-13T07:30:53.100Z,0.95
2023-01-13T07:33:21.015Z,1.08
2023-01-13T07:35:57.439Z,0.80
2023-01-13T07:38:25.686Z,1.10
2023-01-13T07:40:53.605Z,0.95
2023-01-13T07:53:41.508Z,0.93
2023-01-13T07:56:09.045Z,0.85
2023-01-13T08:06:20.328Z,0.93
2023-01-13T08:08:48.223Z,0.80
2023-01-13T08:11:15.641Z,0.90
2023-01-13T08:13:43.620Z,1.20
2023-01-13T08:16:13.452Z,1.05
2023-01-13T08:18:41.811Z,0.88
2023-01-13T08:21:11.072Z,1.38
2023-01-13T08:23:40.715Z,1.00
2023-01-13T08:26:10.145Z,1.25
2023-01-13T08:28:38.815Z,1.10
2023-01-13T08:31:08.447Z,1.23
2023-01-13T08:33:36.386Z,1.52
2023-01-13T08:36:04.724Z,1.40
2023-01-13T08:38:33.237Z,1.23
2023-01-13T08:41:08.203Z,1.20
2023-01-13T08:43:35.939Z,1.20
2023-01-13T08:46:04.035Z,1.00
2023-01-13T08:48:32.015Z,1.10
2023-01-13T08:51:04.352Z,0.95
2023-01-13T08:53:32.719Z,1.60
2023-01-13T08:56:01.709Z,1.23
2023-01-13T08:58:29.553Z,1.13
2023-01-13T09:00:57.485Z,1.10
2023-01-13T09:03:25.457Z,0.90
2023-01-13T09:05:52.942Z,1.00
2023-01-13T09:08:20.979Z,1.10
2023-01-13T09:10:48.655Z,1.10
2023-01-13T09:13:18.186Z,1.30
2023-01-13T09:15:46.353Z,1.55
2023-01-13T09:18:14.954Z,1.42
2023-01-13T09:20:42.650Z,1.33
2023-01-13T09:23:11.453Z,1.45
2023-01-13T09:25:39.638Z,1.20
2023-01-13T09:28:07.752Z,1.40
2023-01-13T09:30:37.425Z,1.30
2023-01-13T09:33:05.526Z,1.00
2023-01-13T09:35:33.073Z,1.27
2023-01-13T09:38:01.085Z,1.27
2023-01-13T09:40:28.623Z,1.30
2023-01-13T09:43:02.909Z,1.30
2023-01-13T09:45:36.823Z,1.30
2023-01-13T09:48:13.581Z,1.50
2023-01-13T09:50:58.812Z,1.20
2023-01-13T09:53:30.598Z,1.02
2023-01-13T09:55:58.245Z,1.55
2023-01-13T09:58:27.261Z,1.58
2023-01-13T10:01:06.599Z,1.27
2023-01-13T10:03:36.354Z,1.30
2023-01-13T10:06:13.737Z,1.95
2023-01-13T10:08:43.679Z,1.35
2023-01-13T10:11:16.422Z,1.30
2023-01-13T10:13:44.830Z,1.75
2023-01-13T10:16:24.763Z,1.55
2023-01-13T10:19:04.893Z,1.65
2023-01-13T10:22:01.934Z,1.75
2023-01-13T10:27:04.617Z,1.33
2023-01-13T10:29:33.545Z,1.23
2023-01-13T10:32:01.164Z,1.40
2023-01-13T10:34:30.356Z,1.60
2023-01-13T10:37:00.187Z,1.77
2023-01-13T10:39:34.840Z,1.90
2023-01-13T10:42:06.641Z,2.55
2023-01-13T10:44:47.404Z,2.38
2023-01-13T10:47:21.501Z,1.88
2023-01-13T10:50:13.609Z,2.30
2023-01-13T10:52:54.898Z,1.88
2023-01-13T10:55:27.333Z,1.70
2023-01-13T10:57:55.002Z,1.60
2023-01-13T11:00:34.005Z,1.80
2023-01-13T11:03:17.483Z,1.77
2023-01-13T11:05:52.422Z,2.28
2023-01-13T11:08:22.670Z,1.80
2023-01-13T11:11:01.203Z,1.50
2023-01-13T11:13:34.341Z,2.17
2023-01-13T11:16:29.815Z,1.60
2023-01-13T11:19:02.681Z,1.20
2023-01-13T11:21:38.981Z,1.27
2023-01-13T11:24:15.579Z,1.42
2023-01-13T11:26:47.704Z,1.38
2023-01-13T11:29:22.449Z,2.00
2023-01-13T11:31:55.673Z,1.85
2023-01-13T11:34:30.554Z,1.70
2023-01-13T11:37:04.146Z,1.90
2023-01-13T11:39:44.282Z,1.90
2023-01-13T11:42:20.881Z,1.80
2023-01-13T11:44:56.614Z,1.42
2023-01-13T11:47:26.474Z,1.55
2023-01-13T11:49:54.408Z,2.15
2023-01-13T11:52:32.450Z,2.00
2023-01-13T11:55:22.447Z,2.00
2023-01-13T11:58:02.875Z,1.90
2023-01-13T12:00:39.520Z,1.77
2023-01-13T12:03:22.275Z,1.60
2023-01-13T12:06:01.690Z,1.40
2023-01-13T12:08:47.473Z,1.40
2023-01-13T12:11:22.921Z,1.50
2023-01-13T12:14:06.736Z,2.00
2023-01-13T12:16:34.936Z,1.75
2023-01-13T12:19:25.946Z,1.92
2023-01-13T12:22:10.154Z,2.05
2023-01-13T12:24:44.671Z,1.77
2023-01-13T12:27:19.130Z,2.13
2023-01-13T12:29:51.594Z,1.90
2023-01-13T12:32:23.657Z,1.70
2023-01-13T12:35:07.126Z,1.75
2023-01-13T12:37:39.824Z,2.00
2023-01-13T12:40:28.695Z,1.55
2023-01-13T12:43:03.108Z,1.40
2023-01-13T12:45:32.031Z,1.40
2023-01-13T12:48:00.402Z,1.80
2023-01-13T12:50:58.293Z,1.75
2023-01-13T12:53:36.977Z,1.65
2023-01-13T12:56:37.947Z,1.40
2023-01-13T12:59:44.599Z,1.55
2023-01-13T13:02:39.200Z,2.00
2023-01-13T13:05:46.036Z,1.30
2023-01-13T13:08:26.400Z,1.42
2023-01-13T13:11:14.564Z,1.50
2023-01-13T13:13:47.547Z,1.50
2023-01-13T13:16:57.060Z,1.60
2023-01-13T13:19:44.968Z,1.92
2023-01-13T13:22:37.347Z,1.60
2023-01-13T13:25:24.426Z,1.92
2023-01-13T13:28:06.331Z,1.52
2023-01-13T13:30:37.774Z,1.70
2023-01-13T13:33:31.626Z,1.73
2023-01-13T13:36:11.328Z,1.85
2023-01-13T13:38:54.214Z,1.77
2023-01-13T13:41:24.430Z,2.05
2023-01-13T13:43:52.010Z,1.55
2023-01-13T13:46:32.603Z,1.70
2023-01-13T13:49:00.347Z,2.42
2023-01-13T13:51:35.180Z,1.98
2023-01-13T13:54:03.823Z,2.05
2023-01-13T13:56:38.621Z,2.40
2023-01-13T13:59:10.587Z,2.50
2023-01-13T14:01:42.864Z,2.08
2023-01-13T14:04:17.345Z,2.40
2023-01-13T14:06:53.695Z,2.65
2023-01-13T14:09:22.596Z,2.17
2023-01-13T14:11:59.898Z,2.20
2023-01-13T14:14:27.982Z,2.47
2023-01-13T14:16:57.974Z,2.83
2023-01-13T14:19:32.106Z,2.33
2023-01-13T14:22:02.247Z,2.42
2023-01-13T14:24:31.296Z,2.10
2023-01-13T14:27:15.558Z,2.80
2023-01-13T14:29:43.423Z,2.45
2023-01-13T14:32:15.361Z,1.63
2023-01-13T14:34:43.241Z,1.33
2023-01-13T14:37:25.127Z,1.98
2023-01-13T14:39:52.870Z,2.47
2023-01-13T14:42:22.209Z,1.38
2023-01-13T14:44:51.168Z,1.42
2023-01-13T14:47:24.249Z,1.27
2023-01-13T14:49:59.124Z,1.60
2023-01-13T14:52:30.007Z,2.10
2023-01-13T14:55:21.374Z,2.35
2023-01-13T14:57:49.534Z,2.30
2023-01-13T15:00:24.061Z,2.97
2023-01-13T15:03:07.175Z,3.40
2023-01-13T15:05:45.046Z,2.70
2023-01-13T15:08:36.949Z,3.30
2023-01-13T15:11:07.304Z,3.15
2023-01-13T15:13:50.256Z,3.03
2023-01-13T15:16:23.824Z,3.22
2023-01-13T15:18:54.042Z,3.30
2023-01-13T15:21:21.720Z,3.95
2023-01-13T15:23:49.816Z,2.95
2023-01-13T15:26:23.520Z,2.90
2023-01-13T15:28:52.150Z,3.17
2023-01-13T15:31:20.065Z,2.90
2023-01-13T15:33:48.549Z,3.83
2023-01-13T15:36:29.150Z,4.30
2023-01-13T15:38:58.459Z,3.97
2023-01-13T15:41:26.484Z,4.63
2023-01-13T15:43:54.656Z,3.90
2023-01-13T15:46:22.719Z,3.40
2023-01-13T15:48:53.171Z,4.10
2023-01-13T15:51:22.661Z,5.82
2023-01-13T15:53:52.148Z,7.20
2023-01-13T15:56:25.512Z,6.13
2023-01-13T15:58:53.557Z,5.38
2023-01-13T16:01:21.654Z,5.38
2023-01-13T16:03:49.601Z,5.32
2023-01-13T16:06:19.347Z,5.43
2023-01-13T16:08:47.242Z,4.78
2023-01-13T16:11:16.269Z,5.20
2023-01-13T16:13:44.229Z,4.85
2023-01-13T16:16:20.769Z,4.90
2023-01-13T16:18:49.304Z,5.55
2023-01-13T16:21:17.221Z,4.45
2023-01-13T16:23:45.540Z,5.80
2023-01-13T16:26:19.040Z,6.47
2023-01-13T16:28:47.245Z,6.25
2023-01-13T16:31:22.676Z,8.82
2023-01-13T16:33:50.992Z,9.52
2023-01-13T16:36:22.639Z,8.98
2023-01-13T16:38:51.758Z,8.02
2023-01-13T16:41:22.181Z,7.55
2023-01-13T16:43:50.602Z,6.53
2023-01-13T16:46:24.661Z,6.63
2023-01-13T16:48:53.716Z,7.68
2023-01-13T16:51:21.988Z,5.72
2023-01-13T16:53:50.174Z,8.02
2023-01-13T16:56:24.663Z,3.88
2023-01-13T16:58:54.115Z,4.15
2023-01-13T17:01:24.525Z,4.68
2023-01-13T17:03:53.256Z,4.53
2023-01-13T17:06:24.532Z,4.00
2023-01-13T17:08:53.393Z,3.90
2023-01-13T17:11:22.669Z,3.35
2023-01-13T17:13:50.690Z,4.35
2023-01-13T17:16:20.420Z,5.70
2023-01-13T17:18:49.065Z,4.88
2023-01-13T17:21:17.112Z,4.97
2023-01-13T17:23:45.393Z,4.90
2023-01-13T17:26:28.124Z,5.32
2023-01-13T17:28:56.114Z,6.35
2023-01-13T17:31:23.888Z,9.23
2023-01-13T17:33:52.024Z,9.90
2023-01-13T17:36:19.648Z,7.75
2023-01-13T17:38:47.610Z,9.32
2023-01-13T17:41:15.042Z,8.35
2023-01-13T17:43:44.433Z,7.90
2023-01-13T17:46:12.828Z,7.40
2023-01-13T17:48:40.638Z,6.97
2023-01-13T17:51:11.832Z,9.57
2023-01-13T17:53:39.875Z,9.32
2023-01-13T17:56:09.208Z,11.38
2023-01-13T17:58:37.507Z,8.88
2023-01-13T18:01:10.757Z,8.73
2023-01-13T18:03:39.272Z,9.30
2023-01-13T18:06:09.180Z,8.48
2023-01-13T18:08:37.465Z,8.48
2023-01-13T18:11:06.424Z,9.07
2023-01-13T18:13:34.942Z,9.68
2023-01-13T18:16:03.719Z,9.13
2023-01-13T18:18:33.214Z,9.95
2023-01-13T18:21:00.773Z,10.48
2023-01-13T18:23:28.896Z,9.70
2023-01-13T18:25:56.388Z,10.43
2023-01-13T18:28:24.364Z,10.95
2023-01-13T18:30:51.811Z,9.70
2023-01-13T18:33:20.083Z,7.88
2023-01-13T18:35:49.066Z,8.50
2023-01-13T18:38:17.540Z,8.38
2023-01-13T18:40:45.066Z,8.52
2023-01-13T18:43:12.875Z,8.95
2023-01-13T18:45:40.345Z,8.68
2023-01-13T18:48:08.597Z,8.65
2023-01-13T18:50:36.064Z,8.30
2023-01-13T18:53:05.369Z,8.20
2023-01-13T18:55:32.722Z,8.25
2023-01-13T18:58:01.153Z,9.75
2023-01-13T19:00:28.587Z,9.95
2023-01-13T19:05:34.392Z,10.00
2023-01-13T19:08:02.509Z,10.07
2023-01-13T19:10:33.981Z,9.18
2023-01-13T19:13:01.953Z,9.25
2023-01-13T19:15:29.713Z,8.80
2023-01-13T19:17:58.022Z,9.77
2023-01-13T19:20:25.624Z,9.25
2023-01-13T19:22:54.005Z,7.90
2023-01-13T19:25:21.651Z,8.13
2023-01-13T19:27:50.980Z,9.82
2023-01-13T19:30:19.301Z,8.73
2023-01-13T19:32:47.200Z,8.95
2023-01-13T19:35:14.690Z,8.98
2023-01-13T19:37:42.505Z,9.07
2023-01-13T19:40:11.342Z,8.93
2023-01-13T19:45:12.485Z,8.60
2023-01-13T19:47:41.105Z,7.07
2023-01-13T19:50:10.118Z,8.05
2023-01-13T19:52:37.995Z,7.10
2023-01-13T19:55:06.416Z,5.47
2023-01-13T19:57:34.350Z,7.43
2023-01-13T20:00:01.705Z,7.03
2023-01-13T20:02:31.508Z,7.57
2023-01-13T20:05:01.526Z,7.25
2023-01-13T20:07:31.034Z,6.97
2023-01-13T20:09:58.579Z,7.85
2023-01-13T20:12:26.601Z,6.75
2023-01-13T20:14:54.169Z,7.15
2023-01-13T20:17:22.460Z,7.28
2023-01-13T20:19:51.354Z,7.47
2023-01-13T20:22:19.148Z,7.68
2023-01-13T20:24:46.556Z,6.80
2023-01-13T20:27:14.370Z,7.25
2023-01-13T20:29:42.019Z,7.15
2023-01-13T20:32:10.611Z,6.15
2023-01-13T20:34:38.155Z,6.65
2023-01-13T20:37:07.512Z,7.63
2023-01-13T20:39:35.002Z,8.30
2023-01-13T20:42:02.868Z,6.30
2023-01-13T20:44:30.997Z,5.05
2023-01-13T20:46:58.973Z,4.35
2023-01-13T20:49:27.802Z,4.95
2023-01-13T20:51:56.244Z,4.40
2023-01-13T20:54:25.545Z,3.47
2023-01-13T20:56:54.158Z,3.83
2023-01-13T20:59:21.715Z,3.45
2023-01-13T21:01:49.893Z,3.63
2023-01-13T21:04:17.370Z,3.08
2023-01-13T21:06:45.497Z,3.90
2023-01-13T21:09:13.015Z,3.60
2023-01-13T21:11:43.243Z,3.28
2023-01-13T21:14:14.120Z,4.70
2023-01-13T21:16:42.039Z,3.35
2023-01-13T21:19:09.592Z,3.63
2023-01-13T21:21:37.593Z,3.25
2023-01-13T21:24:05.775Z,3.42
2023-01-13T21:26:33.818Z,3.30
2023-01-13T21:29:02.872Z,3.42
2023-01-13T21:31:30.870Z,3.15
2023-01-13T21:33:58.963Z,2.83
2023-01-13T21:36:27.929Z,3.60
2023-01-13T21:38:56.912Z,2.65
2023-01-13T21:41:26.340Z,2.80
2023-01-13T21:43:54.154Z,3.42
2023-01-13T21:46:23.971Z,3.00
2023-01-13T21:48:51.508Z,2.55
2023-01-13T21:51:19.427Z,2.33
2023-01-13T21:53:47.204Z,2.15
2023-01-13T21:56:15.432Z,2.05
2023-01-13T21:58:43.020Z,1.85
2023-01-13T22:01:11.957Z,1.85
2023-01-13T22:03:41.395Z,2.50
2023-01-13T22:06:09.437Z,2.25
2023-01-13T22:08:37.051Z,2.33
2023-01-13T22:11:05.287Z,2.63
2023-01-13T22:13:32.823Z,2.40
2023-01-13T22:16:02.909Z,2.60
2023-01-13T22:18:30.330Z,2.58
2023-01-13T22:21:02.168Z,2.50
2023-01-13T22:23:29.767Z,2.20
2023-01-13T22:26:01.334Z,3.25
2023-01-13T22:28:29.516Z,2.30
2023-01-13T22:30:57.521Z,2.55
2023-01-13T22:33:24.963Z,2.70
2023-01-13T22:35:55.076Z,2.47
2023-01-13T22:38:24.248Z,2.13
2023-01-13T22:40:58.550Z,2.42
2023-01-13T22:43:27.123Z,2.38
2023-01-13T22:45:58.683Z,1.83
2023-01-13T22:48:26.266Z,2.10
2023-01-13T22:50:55.097Z,1.65
2023-01-13T22:53:23.930Z,1.73
2023-01-13T22:55:55.347Z,1.90
2023-01-13T22:58:23.583Z,2.40
2023-01-13T23:00:51.686Z,1.80
2023-01-13T23:03:19.529Z,1.63
2023-01-13T23:05:47.516Z,2.13
2023-01-13T23:08:15.060Z,2.10
2023-01-13T23:10:44.211Z,2.58
2023-01-13T23:13:11.717Z,2.35
2023-01-13T23:15:39.505Z,2.20
2023-01-13T23:18:06.960Z,1.90
2023-01-13T23:20:34.870Z,1.88
2023-01-13T23:23:02.347Z,2.10
2023-01-13T23:25:30.513Z,1.50
2023-01-13T23:27:59.464Z,2.13
2023-01-13T23:30:27.614Z,2.35
2023-01-13T23:32:55.101Z,2.25
2023-01-13T23:35:23.192Z,2.30
2023-01-13T23:37:50.684Z,2.17
2023-01-13T23:40:18.649Z,1.88
2023-01-13T23:42:46.273Z,2.20
2023-01-13T23:45:15.960Z,2.17
2023-01-13T23:47:43.691Z,1.70
2023-01-13T23:50:11.829Z,2.33
2023-01-13T23:52:39.362Z,2.25
2023-01-13T23:55:07.771Z,2.10
2023-01-13T23:57:35.480Z,2.10
